アナディリ の空港の天気 - METARとTAF

アナディリ・ウゴルヌイ空港 ( UHMA / DYR ) - ロシア アナディリ
飛行場実況気象(Metar)
観測時間05/27 10:00 MAGT (05/26 23:00 UTC)
風向・風速東南東 6m/s
視程10km以上
天気現象
全天の4割程度の雲 雲底高度 150m
全天の8割程度の雲 雲底高度 1160m
気温4℃
湿度81%
気圧1013hPa
METARUHMA 262300Z 11006MPS 080V140 9999 SCT005 BKN038 04/01 Q1013 R01/CLRD60 NOSIG RMK TDZ R01/11006G09MPS END R01/11008G10MPS MT OBSC QFE756/1008
過去の天気等 Google飛行場航空写真 Wunderground天気予報

過去48時間のMETAR

飛行場予報(TAF)
発表時間: 5/27 06:57 MAGT (5/26 19:57 UTC)
予報対象時間: 27日8時 MAGT ~ 28日8時 MAGT
風向・風速東 5m/s 瞬間風速 10m/s
視程10km以上
全天の4割程度の雲 雲底高度 120m
全天の8割程度の雲 雲底高度 610m
27日8時 MAGT ~ 27日18時 MAGT に一時的に
風向・風速東南東 9m/s 瞬間風速 14m/s
視程1100m
天気現象弱い雨雪 もや
全天の4割程度の雲 雲底高度 90m
全天を覆う雲 雲底高度 460m
27日18時 MAGT ~ 27日20時 MAGT に徐々に
風向・風速北 5m/s
視程5000m
天気現象弱い雨
27日20時 MAGT ~ 28日8時 MAGT に一時的に
風向・風速東北東 3m/s 瞬間風速 8m/s
視程1100m
天気現象雨 もや
全天の8割程度の雲 雲底高度 90m
全天の8割程度の雲 雲底高度 460m
TAF UHMA 261957Z 2621/2721 10005G10MPS 9999 SCT004 BKN020
TEMPO 2621/2707 12009G14MPS 1100 -RASN BR SCT003 OVC015
BECMG 2707/2709 01005MPS 5000 -RA
TEMPO 2709/2721 07003G08MPS 1100 RA BR BKN003 BKN015